• Join FlightAware (Why Join?)
  • Login
  • US Flag 
02:23AM EDT


 

Airport Tracker/Info


-or-


 

Live Flight TrackerFlight Track Log ✈ PDT4226 ✈ 28-Jan-2014 ✈ KPHL - KBGM

Flight Track Log - Related Links

Times and Time Zones

All times are in EST time to prevent confusion due to time zone crossing. See the PDT4226 flight status page for this flight to view local times or setup timezone preferences in your user account.

Time Position Orientation Groundspeed Altitude Reporting Facility
EST Latitude Longitude Course Direction KTS MPH feet Rate Location/Type
11:55AM 39.9000 -75.2333 311° West 129 148 700  Level Philadelphia TRACON
11:56AM 39.9000 -75.2667 270° West 128 147 1,600 1,380 Climbing Philadelphia TRACON
11:57AM 39.9167 -75.3000 303° West 141 162 2,800 1,200 Climbing Philadelphia TRACON
11:58AM 40.0477 -75.3978 323° Northwest  Level FlightAware Approximate
11:58AM 39.9500 -75.3333 323° Northwest 135 155 4,000  Level Philadelphia TRACON
11:59AM 40.1085 -75.4503 303° West  Level FlightAware Approximate
12:00PM 40.1676 -75.5014 311° West  Level FlightAware Approximate
12:00PM 40.0103 -75.3944 322° Northwest 144 166 6,200  Level New York Center
12:01PM 40.2227 -75.5590 311° West  Level FlightAware Approximate
12:01PM 40.0431 -75.4103 340° North 137 158 7,200  Level New York Center
12:02PM 40.0794 -75.4397 328° Northwest 137 158 8,300 1,080 Climbing New York Center
12:03PM 40.1097 -75.4689 324° Northwest 142 163 9,400 1,020 Climbing New York Center
12:04PM 40.1458 -75.4986 328° Northwest 147 169 10,400 900 Climbing New York Center
12:05PM 40.1803 -75.5225 332° Northwest 147 169 11,300 780 Climbing New York Center
12:06PM 40.2211 -75.5472 335° Northwest 147 169 12,000 300 Climbing New York Center
12:07PM 40.2483 -75.5981 305° West 152 175 12,000  Level New York Center
12:08PM 40.2692 -75.6456 300° West 152 175 12,000  Level New York Center
12:09PM 40.3028 -75.6889 315° West 164 189 12,100 480 Climbing New York Center
12:10PM 40.3325 -75.7292 314° West 170 196 13,000 900 Climbing New York Center
12:11PM 40.3644 -75.7614 322° Northwest 164 189 14,000 480 Climbing New York Center
12:12PM 40.4194 -75.7897 339° North 169 194 14,000  Level New York Center
12:13PM 40.4744 -75.8183 338° Northwest 200 230 14,000  Level New York Center
12:14PM 40.5294 -75.8469 338° Northwest 210 242 14,000  Level New York Center
12:15PM 40.5611 -75.8903 314° West 190 219 14,000  Level New York Center
12:16PM 40.6025 -75.9453 315° West 185 213 14,000  Level New York Center
12:17PM 40.6425 -75.9786 328° Northwest 185 213 14,000  Level New York Center
12:18PM 40.7103 -76.0000 347° North 211 243 14,000 -60 Level New York Center
12:19PM 40.7675 -76.0264 341° North 221 254 13,900 -60 Descending New York Center
12:20PM 40.8250 -76.0500 343° North 221 254 13,900  Level New York Center
12:21PM 40.8758 -76.0731 341° North 221 254 13,900  Level New York Center
12:22PM 40.9333 -76.0942 344° North 221 254 13,900  Level New York Center
12:23PM 40.9969 -76.1183 344° North 216 249 14,000  Climbing New York Center
12:24PM 41.0522 -76.1392 344° North 210 242 14,000  Level New York Center
12:25PM 41.1072 -76.1628 342° North 210 242 14,000  Level New York Center
12:26PM 41.1608 -76.1781 348° North 205 236 14,000  Level New York Center
12:27PM 41.2181 -76.2019 343° North 205 236 14,000 -360 Level New York Center
12:28PM 41.2867 -76.2075 357° North 217 250 13,300 -840 Descending New York Center
12:29PM 41.3533 -76.2047 North 232 267 12,400 -960 Descending New York Center
12:30PM 41.4181 -76.1989 North 239 275 11,400 -1,020 Descending New York Center
12:31PM 41.4750 -76.1867 North 234 269 10,400 -1,020 Descending New York Center
12:32PM 41.5372 -76.1889 358° North 229 264 9,400 -660 Descending New York Center
12:33PM 41.6036 -76.1944 356° North 217 250 9,100 -240 Descending New York Center
12:34PM 41.6600 -76.1933 North 212 244 9,000 -60 Descending New York Center
12:35PM 41.7189 -76.1817 North 212 244 9,000 -360 Level New York Center
12:36PM 41.7644 -76.1408 34° Northeast 212 244 8,300 -900 Descending New York Center
12:37PM 41.8183 -76.1006 29° Northeast 217 250 7,200 -1,140 Descending New York Center
12:38PM 41.8706 -76.0489 36° Northeast 217 250 6,100 -1,080 Descending New York Center
12:39PM 41.9183 -76.0083 32° Northeast 212 244 5,100 -600 Descending New York Center
12:40PM 41.9678 -75.9703 30° Northeast 205 236 5,000 -120 Descending New York Center
12:41PM 42.0086 -75.9400 29° Northeast 191 220 4,900 -120 Descending New York Center
12:42PM 42.0619 -75.9106 22° Northeast 180 207 4,800 -300 Descending New York Center
12:43PM 42.1122 -75.9033 North 175 201 4,400 -480 Descending New York Center
12:44PM 42.1578 -75.9069 357° North 163 188 3,900 -540 Descending New York Center